aviador You're here:

KOFP Decoded Metar

RICHMOND/HANOVER in VA, USA
Report Time2017-08-16 18:54:00
UTC Time2017-08-16 19:31:19
Flight Rules vfr VFR
Wind140° at 03 kt
W.Decomp.*RWY 16: 2.9 kt HW 0.6 kt LCW
W.Rank140° ranks 36
Current wind is below 140° avg. (4.4)
Visibility9999 m
Phenomena:N/A
Clouds:Scattered 043 Hf
Expected CloudBase > 3,600 ft AGL from Temp-Dew spread
CeilingNone
Temp30°C (ISA +15)
Dew Point21°C (59% RH)
Heat Index32.6°C
QNH1016 hPa
Density Alt2,195 ft
Elevation203 ft
Report Wrong Elevation
Raw Report
KOFP 161854Z AUTO 14003KT 9SM SCT043 30/21 A3001 RMK AO2 SLP160
T03000206=

Extra information for KOFP:More info

Metar Taf Metar & Taf Last 4 Metars F.Rules Stats Wind Profile Meteogram Temp Stats Airport Information Weather charts Add Link Nearby VenuesMetar ALERT Operation Metar Decoded Social comments

AIRNAV info for KOFP